sensor_id;sensor_type;location;lat;lon;timestamp;temperature;humidity
32502;DHT22;18952;52.516;13.460;2023-03-12T00:02:04;0.40;99.90
32502;DHT22;18952;52.516;13.460;2023-03-12T00:04:31;0.40;99.90
32502;DHT22;18952;52.516;13.460;2023-03-12T00:06:58;0.30;99.90
32502;DHT22;18952;52.516;13.460;2023-03-12T00:09:25;0.30;99.90
32502;DHT22;18952;52.516;13.460;2023-03-12T00:11:52;0.30;99.90
32502;DHT22;18952;52.516;13.460;2023-03-12T00:14:19;0.30;99.90
32502;DHT22;18952;52.516;13.460;2023-03-12T00:16:46;0.30;99.90
32502;DHT22;18952;52.516;13.460;2023-03-12T00:19:13;0.30;99.90
32502;DHT22;18952;52.516;13.460;2023-03-12T00:21:39;0.40;99.90
32502;DHT22;18952;52.516;13.460;2023-03-12T00:24:07;0.30;99.90
32502;DHT22;18952;52.516;13.460;2023-03-12T00:26:34;0.30;99.90
32502;DHT22;18952;52.516;13.460;2023-03-12T00:29:01;0.40;99.90
32502;DHT22;18952;52.516;13.460;2023-03-12T00:31:30;0.40;99.90
32502;DHT22;18952;52.516;13.460;2023-03-12T00:33:58;0.30;99.90
32502;DHT22;18952;52.516;13.460;2023-03-12T00:36:27;0.30;99.90
32502;DHT22;18952;52.516;13.460;2023-03-12T00:38:55;0.30;99.90
32502;DHT22;18952;52.516;13.460;2023-03-12T00:41:23;0.30;99.90
32502;DHT22;18952;52.516;13.460;2023-03-12T00:43:50;0.30;99.90
32502;DHT22;18952;52.516;13.460;2023-03-12T00:46:19;0.30;99.90
32502;DHT22;18952;52.516;13.460;2023-03-12T00:48:46;0.30;99.90
32502;DHT22;18952;52.516;13.460;2023-03-12T00:51:13;0.30;99.90
32502;DHT22;18952;52.516;13.460;2023-03-12T00:53:40;0.30;99.90
32502;DHT22;18952;52.516;13.460;2023-03-12T00:56:07;0.30;99.90
32502;DHT22;18952;52.516;13.460;2023-03-12T00:58:34;0.30;99.90
32502;DHT22;18952;52.516;13.460;2023-03-12T01:01:02;0.30;99.90
32502;DHT22;18952;52.516;13.460;2023-03-12T01:03:29;0.30;99.90
32502;DHT22;18952;52.516;13.460;2023-03-12T01:05:56;0.40;99.90
32502;DHT22;18952;52.516;13.460;2023-03-12T01:08:23;0.40;99.90
32502;DHT22;18952;52.516;13.460;2023-03-12T01:10:51;0.40;99.90
32502;DHT22;18952;52.516;13.460;2023-03-12T01:13:18;0.50;99.90
32502;DHT22;18952;52.516;13.460;2023-03-12T01:15:45;0.50;99.90
32502;DHT22;18952;52.516;13.460;2023-03-12T01:18:12;0.50;99.90
32502;DHT22;18952;52.516;13.460;2023-03-12T01:20:39;0.50;99.90
32502;DHT22;18952;52.516;13.460;2023-03-12T01:23:07;0.50;99.90
32502;DHT22;18952;52.516;13.460;2023-03-12T01:25:35;0.60;99.90
32502;DHT22;18952;52.516;13.460;2023-03-12T01:28:02;0.50;99.90
32502;DHT22;18952;52.516;13.460;2023-03-12T01:30:29;0.60;99.90
32502;DHT22;18952;52.516;13.460;2023-03-12T01:32:56;0.60;99.90
32502;DHT22;18952;52.516;13.460;2023-03-12T01:35:23;0.60;99.90
32502;DHT22;18952;52.516;13.460;2023-03-12T01:37:51;0.60;99.90
32502;DHT22;18952;52.516;13.460;2023-03-12T01:40:20;0.60;99.90
32502;DHT22;18952;52.516;13.460;2023-03-12T01:42:52;0.60;99.90
32502;DHT22;18952;52.516;13.460;2023-03-12T01:48:25;0.70;99.90
32502;DHT22;18952;52.516;13.460;2023-03-12T01:50:52;0.70;99.90
32502;DHT22;18952;52.516;13.460;2023-03-12T01:53:19;0.70;99.90
32502;DHT22;18952;52.516;13.460;2023-03-12T01:55:47;0.70;99.90
32502;DHT22;18952;52.516;13.460;2023-03-12T01:58:14;0.80;99.90
32502;DHT22;18952;52.516;13.460;2023-03-12T02:00:41;0.80;99.90
32502;DHT22;18952;52.516;13.460;2023-03-12T02:03:09;0.80;99.90
32502;DHT22;18952;52.516;13.460;2023-03-12T02:08:16;0.80;99.90
32502;DHT22;18952;52.516;13.460;2023-03-12T02:10:44;0.80;99.90
32502;DHT22;18952;52.516;13.460;2023-03-12T02:13:11;0.80;99.90
32502;DHT22;18952;52.516;13.460;2023-03-12T02:15:38;0.80;99.90
32502;DHT22;18952;52.516;13.460;2023-03-12T02:18:08;0.80;99.90
32502;DHT22;18952;52.516;13.460;2023-03-12T02:23:31;0.80;99.90
32502;DHT22;18952;52.516;13.460;2023-03-12T02:26:01;0.80;99.90
32502;DHT22;18952;52.516;13.460;2023-03-12T02:28:31;0.90;99.90
32502;DHT22;18952;52.516;13.460;2023-03-12T02:31:02;0.80;99.90
32502;DHT22;18952;52.516;13.460;2023-03-12T02:33:30;0.80;99.90
32502;DHT22;18952;52.516;13.460;2023-03-12T02:35:57;0.80;99.90
32502;DHT22;18952;52.516;13.460;2023-03-12T02:38:43;0.80;99.90
32502;DHT22;18952;52.516;13.460;2023-03-12T02:41:21;0.70;99.90
32502;DHT22;18952;52.516;13.460;2023-03-12T02:43:55;0.70;99.90
32502;DHT22;18952;52.516;13.460;2023-03-12T02:46:24;0.60;99.90
32502;DHT22;18952;52.516;13.460;2023-03-12T02:48:51;0.60;99.90
32502;DHT22;18952;52.516;13.460;2023-03-12T02:51:19;0.50;99.90
32502;DHT22;18952;52.516;13.460;2023-03-12T02:53:45;0.40;99.90
32502;DHT22;18952;52.516;13.460;2023-03-12T02:56:12;0.40;99.90
32502;DHT22;18952;52.516;13.460;2023-03-12T02:58:39;0.40;99.90
32502;DHT22;18952;52.516;13.460;2023-03-12T03:01:06;0.40;99.90
32502;DHT22;18952;52.516;13.460;2023-03-12T03:03:33;0.30;99.90
32502;DHT22;18952;52.516;13.460;2023-03-12T03:06:00;0.40;99.90
32502;DHT22;18952;52.516;13.460;2023-03-12T03:08:27;0.30;99.90
32502;DHT22;18952;52.516;13.460;2023-03-12T03:10:54;0.30;99.90
32502;DHT22;18952;52.516;13.460;2023-03-12T03:13:24;0.30;99.90
32502;DHT22;18952;52.516;13.460;2023-03-12T03:15:50;0.20;99.90
32502;DHT22;18952;52.516;13.460;2023-03-12T03:18:17;0.10;99.90
32502;DHT22;18952;52.516;13.460;2023-03-12T03:20:44;0.10;99.90
32502;DHT22;18952;52.516;13.460;2023-03-12T03:23:11;0.10;99.90
32502;DHT22;18952;52.516;13.460;2023-03-12T03:25:38;0.00;99.90
32502;DHT22;18952;52.516;13.460;2023-03-12T03:28:04;0.00;99.90
32502;DHT22;18952;52.516;13.460;2023-03-12T03:30:31;0.00;99.90
32502;DHT22;18952;52.516;13.460;2023-03-12T03:32:58;0.00;99.90
32502;DHT22;18952;52.516;13.460;2023-03-12T03:35:25;0.00;99.90
32502;DHT22;18952;52.516;13.460;2023-03-12T03:37:52;0.00;99.90
32502;DHT22;18952;52.516;13.460;2023-03-12T03:40:19;-0.10;99.90
32502;DHT22;18952;52.516;13.460;2023-03-12T03:42:45;-0.10;99.90
32502;DHT22;18952;52.516;13.460;2023-03-12T03:45:12;-0.10;99.90
32502;DHT22;18952;52.516;13.460;2023-03-12T03:47:39;-0.20;99.90
32502;DHT22;18952;52.516;13.460;2023-03-12T03:50:06;-0.20;99.90
32502;DHT22;18952;52.516;13.460;2023-03-12T03:52:33;-0.20;99.90
32502;DHT22;18952;52.516;13.460;2023-03-12T03:55:00;-0.20;99.90
32502;DHT22;18952;52.516;13.460;2023-03-12T03:57:28;-0.30;99.90
32502;DHT22;18952;52.516;13.460;2023-03-12T03:59:55;-0.20;99.90
32502;DHT22;18952;52.516;13.460;2023-03-12T04:02:22;-0.30;99.90
32502;DHT22;18952;52.516;13.460;2023-03-12T04:04:49;-0.20;99.90
32502;DHT22;18952;52.516;13.460;2023-03-12T04:07:15;-0.30;99.90
32502;DHT22;18952;52.516;13.460;2023-03-12T04:09:43;-0.30;99.90
32502;DHT22;18952;52.516;13.460;2023-03-12T04:12:10;-0.30;99.90
32502;DHT22;18952;52.516;13.460;2023-03-12T04:14:39;-0.30;99.90
32502;DHT22;18952;52.516;13.460;2023-03-12T04:17:06;-0.30;99.90
32502;DHT22;18952;52.516;13.460;2023-03-12T04:19:34;-0.30;99.90
32502;DHT22;18952;52.516;13.460;2023-03-12T04:22:01;-0.40;99.90
32502;DHT22;18952;52.516;13.460;2023-03-12T04:24:27;-0.40;99.90
32502;DHT22;18952;52.516;13.460;2023-03-12T04:26:54;-0.30;99.90
32502;DHT22;18952;52.516;13.460;2023-03-12T04:29:22;-0.40;99.90
32502;DHT22;18952;52.516;13.460;2023-03-12T04:31:49;-0.40;99.90
32502;DHT22;18952;52.516;13.460;2023-03-12T04:34:15;-0.40;99.90
32502;DHT22;18952;52.516;13.460;2023-03-12T04:36:43;-0.40;99.90
32502;DHT22;18952;52.516;13.460;2023-03-12T04:39:10;-0.40;99.90
32502;DHT22;18952;52.516;13.460;2023-03-12T04:41:37;-0.50;99.90
32502;DHT22;18952;52.516;13.460;2023-03-12T04:44:04;-0.40;99.90
32502;DHT22;18952;52.516;13.460;2023-03-12T04:46:31;-0.40;99.90
32502;DHT22;18952;52.516;13.460;2023-03-12T04:48:58;-0.50;99.90
32502;DHT22;18952;52.516;13.460;2023-03-12T04:51:24;-0.50;99.90
32502;DHT22;18952;52.516;13.460;2023-03-12T04:53:51;-0.50;99.90
32502;DHT22;18952;52.516;13.460;2023-03-12T04:56:18;-0.50;99.90
32502;DHT22;18952;52.516;13.460;2023-03-12T04:58:48;-0.50;99.90
32502;DHT22;18952;52.516;13.460;2023-03-12T05:01:35;-0.50;99.90
32502;DHT22;18952;52.516;13.460;2023-03-12T05:04:02;-0.50;99.90
32502;DHT22;18952;52.516;13.460;2023-03-12T05:06:29;-0.50;99.90
32502;DHT22;18952;52.516;13.460;2023-03-12T05:08:56;-0.50;99.90
32502;DHT22;18952;52.516;13.460;2023-03-12T05:11:23;-0.50;99.90
32502;DHT22;18952;52.516;13.460;2023-03-12T05:13:53;-0.60;99.90
32502;DHT22;18952;52.516;13.460;2023-03-12T05:16:19;-0.60;99.90
32502;DHT22;18952;52.516;13.460;2023-03-12T05:18:46;-0.60;99.90
32502;DHT22;18952;52.516;13.460;2023-03-12T05:21:16;-0.60;99.90
32502;DHT22;18952;52.516;13.460;2023-03-12T05:23:44;-0.60;99.90
32502;DHT22;18952;52.516;13.460;2023-03-12T05:26:26;-0.60;99.90
32502;DHT22;18952;52.516;13.460;2023-03-12T05:28:53;-0.60;99.90
32502;DHT22;18952;52.516;13.460;2023-03-12T05:31:20;-0.60;99.90
32502;DHT22;18952;52.516;13.460;2023-03-12T05:33:47;-0.60;99.90
32502;DHT22;18952;52.516;13.460;2023-03-12T05:36:18;-0.60;99.90
32502;DHT22;18952;52.516;13.460;2023-03-12T05:38:45;-0.60;99.90
32502;DHT22;18952;52.516;13.460;2023-03-12T05:41:26;-0.50;99.90
32502;DHT22;18952;52.516;13.460;2023-03-12T05:43:54;-0.50;99.90
32502;DHT22;18952;52.516;13.460;2023-03-12T05:46:26;-0.50;99.90
32502;DHT22;18952;52.516;13.460;2023-03-12T05:48:52;-0.60;99.90
32502;DHT22;18952;52.516;13.460;2023-03-12T05:51:19;-0.60;99.90
32502;DHT22;18952;52.516;13.460;2023-03-12T05:53:49;-0.60;99.90
32502;DHT22;18952;52.516;13.460;2023-03-12T05:56:17;-0.60;99.90
32502;DHT22;18952;52.516;13.460;2023-03-12T05:58:46;-0.60;99.90
32502;DHT22;18952;52.516;13.460;2023-03-12T06:01:16;-0.60;99.90
32502;DHT22;18952;52.516;13.460;2023-03-12T06:03:43;-0.60;99.90
32502;DHT22;18952;52.516;13.460;2023-03-12T06:06:10;-0.60;99.90
32502;DHT22;18952;52.516;13.460;2023-03-12T06:08:38;-0.60;99.90
32502;DHT22;18952;52.516;13.460;2023-03-12T06:11:05;-0.60;99.90
32502;DHT22;18952;52.516;13.460;2023-03-12T06:13:32;-0.60;99.90
32502;DHT22;18952;52.516;13.460;2023-03-12T06:16:14;-0.60;99.90
32502;DHT22;18952;52.516;13.460;2023-03-12T06:18:42;-0.50;99.90
32502;DHT22;18952;52.516;13.460;2023-03-12T06:21:10;-0.50;99.90
32502;DHT22;18952;52.516;13.460;2023-03-12T06:23:37;-0.50;99.90
32502;DHT22;18952;52.516;13.460;2023-03-12T06:26:04;-0.50;99.90
32502;DHT22;18952;52.516;13.460;2023-03-12T06:28:32;-0.50;99.90
32502;DHT22;18952;52.516;13.460;2023-03-12T06:30:59;-0.50;99.90
32502;DHT22;18952;52.516;13.460;2023-03-12T06:33:26;-0.50;99.90
32502;DHT22;18952;52.516;13.460;2023-03-12T06:35:54;-0.40;99.90
32502;DHT22;18952;52.516;13.460;2023-03-12T06:38:21;-0.40;99.90
32502;DHT22;18952;52.516;13.460;2023-03-12T06:40:55;-0.40;99.90
32502;DHT22;18952;52.516;13.460;2023-03-12T06:43:23;-0.40;99.90
32502;DHT22;18952;52.516;13.460;2023-03-12T06:45:50;-0.40;99.90
32502;DHT22;18952;52.516;13.460;2023-03-12T06:48:17;-0.30;99.90
32502;DHT22;18952;52.516;13.460;2023-03-12T06:50:44;-0.30;99.90
32502;DHT22;18952;52.516;13.460;2023-03-12T06:53:11;-0.30;99.90
32502;DHT22;18952;52.516;13.460;2023-03-12T06:55:38;-0.30;99.90
32502;DHT22;18952;52.516;13.460;2023-03-12T06:58:04;-0.30;99.90
32502;DHT22;18952;52.516;13.460;2023-03-12T07:00:31;-0.20;99.90
32502;DHT22;18952;52.516;13.460;2023-03-12T07:02:58;-0.10;99.90
32502;DHT22;18952;52.516;13.460;2023-03-12T07:05:25;-0.10;99.90
32502;DHT22;18952;52.516;13.460;2023-03-12T07:07:58;-0.10;99.90
32502;DHT22;18952;52.516;13.460;2023-03-12T07:10:25;-0.10;99.90
32502;DHT22;18952;52.516;13.460;2023-03-12T07:12:52;0.00;99.90
32502;DHT22;18952;52.516;13.460;2023-03-12T07:15:18;0.00;99.90
32502;DHT22;18952;52.516;13.460;2023-03-12T07:17:45;0.00;99.90
32502;DHT22;18952;52.516;13.460;2023-03-12T07:20:12;0.10;99.90
32502;DHT22;18952;52.516;13.460;2023-03-12T07:22:41;0.20;99.90
32502;DHT22;18952;52.516;13.460;2023-03-12T07:25:09;0.30;99.90
32502;DHT22;18952;52.516;13.460;2023-03-12T07:27:36;0.40;99.90
32502;DHT22;18952;52.516;13.460;2023-03-12T07:30:03;0.40;99.90
32502;DHT22;18952;52.516;13.460;2023-03-12T07:32:30;0.30;99.90
32502;DHT22;18952;52.516;13.460;2023-03-12T07:34:57;0.40;99.90
32502;DHT22;18952;52.516;13.460;2023-03-12T07:37:24;0.40;99.90
32502;DHT22;18952;52.516;13.460;2023-03-12T07:39:51;0.50;99.90
32502;DHT22;18952;52.516;13.460;2023-03-12T07:42:18;0.40;99.90
32502;DHT22;18952;52.516;13.460;2023-03-12T07:44:45;0.40;99.90
32502;DHT22;18952;52.516;13.460;2023-03-12T07:47:11;0.40;99.90
32502;DHT22;18952;52.516;13.460;2023-03-12T07:49:50;0.40;99.90
32502;DHT22;18952;52.516;13.460;2023-03-12T07:52:17;0.40;99.90
32502;DHT22;18952;52.516;13.460;2023-03-12T07:54:44;0.40;99.90
32502;DHT22;18952;52.516;13.460;2023-03-12T07:57:11;0.40;99.90
32502;DHT22;18952;52.516;13.460;2023-03-12T07:59:38;0.50;99.90
32502;DHT22;18952;52.516;13.460;2023-03-12T08:02:05;0.50;99.90
32502;DHT22;18952;52.516;13.460;2023-03-12T08:04:32;0.50;99.90
32502;DHT22;18952;52.516;13.460;2023-03-12T08:06:59;0.50;99.90
32502;DHT22;18952;52.516;13.460;2023-03-12T08:09:27;0.60;99.90
32502;DHT22;18952;52.516;13.460;2023-03-12T08:11:54;0.70;99.90
32502;DHT22;18952;52.516;13.460;2023-03-12T08:14:23;0.80;99.90
32502;DHT22;18952;52.516;13.460;2023-03-12T08:16:53;0.90;99.90
32502;DHT22;18952;52.516;13.460;2023-03-12T08:19:19;1.00;99.90
32502;DHT22;18952;52.516;13.460;2023-03-12T08:21:46;1.10;99.90
32502;DHT22;18952;52.516;13.460;2023-03-12T08:24:13;1.10;99.90
32502;DHT22;18952;52.516;13.460;2023-03-12T08:26:40;1.20;99.90
32502;DHT22;18952;52.516;13.460;2023-03-12T08:29:06;1.20;99.90
32502;DHT22;18952;52.516;13.460;2023-03-12T08:31:33;1.30;99.90
32502;DHT22;18952;52.516;13.460;2023-03-12T08:34:00;1.30;99.90
32502;DHT22;18952;52.516;13.460;2023-03-12T08:36:27;1.30;99.90
32502;DHT22;18952;52.516;13.460;2023-03-12T08:38:54;1.30;99.90
32502;DHT22;18952;52.516;13.460;2023-03-12T08:41:21;1.30;99.90
32502;DHT22;18952;52.516;13.460;2023-03-12T08:43:48;1.30;99.90
32502;DHT22;18952;52.516;13.460;2023-03-12T08:46:15;1.40;99.90
32502;DHT22;18952;52.516;13.460;2023-03-12T08:48:41;1.50;99.90
32502;DHT22;18952;52.516;13.460;2023-03-12T08:51:08;1.70;99.90
32502;DHT22;18952;52.516;13.460;2023-03-12T08:53:35;1.80;99.90
32502;DHT22;18952;52.516;13.460;2023-03-12T08:56:03;1.90;99.90
32502;DHT22;18952;52.516;13.460;2023-03-12T08:58:30;1.90;99.90
32502;DHT22;18952;52.516;13.460;2023-03-12T09:00:57;2.00;99.90
32502;DHT22;18952;52.516;13.460;2023-03-12T09:03:25;2.20;99.90
32502;DHT22;18952;52.516;13.460;2023-03-12T09:06:05;2.30;99.90
32502;DHT22;18952;52.516;13.460;2023-03-12T09:08:33;2.40;99.90
32502;DHT22;18952;52.516;13.460;2023-03-12T09:10:59;2.40;99.90
32502;DHT22;18952;52.516;13.460;2023-03-12T09:13:26;2.30;99.90
32502;DHT22;18952;52.516;13.460;2023-03-12T09:16:13;2.30;99.90
32502;DHT22;18952;52.516;13.460;2023-03-12T09:18:40;2.30;99.90
32502;DHT22;18952;52.516;13.460;2023-03-12T09:21:07;2.30;99.90
32502;DHT22;18952;52.516;13.460;2023-03-12T09:23:34;2.30;99.90
32502;DHT22;18952;52.516;13.460;2023-03-12T09:26:01;2.30;99.90
32502;DHT22;18952;52.516;13.460;2023-03-12T09:28:27;2.40;99.90
32502;DHT22;18952;52.516;13.460;2023-03-12T09:30:54;2.40;99.90
32502;DHT22;18952;52.516;13.460;2023-03-12T09:33:21;2.50;99.90
32502;DHT22;18952;52.516;13.460;2023-03-12T09:35:58;2.50;99.90
32502;DHT22;18952;52.516;13.460;2023-03-12T09:38:25;2.70;99.90
32502;DHT22;18952;52.516;13.460;2023-03-12T09:40:52;2.80;99.90
32502;DHT22;18952;52.516;13.460;2023-03-12T09:43:35;3.00;99.90
32502;DHT22;18952;52.516;13.460;2023-03-12T09:46:20;3.10;99.90
32502;DHT22;18952;52.516;13.460;2023-03-12T09:48:49;3.20;99.90
32502;DHT22;18952;52.516;13.460;2023-03-12T09:51:21;3.20;99.90
32502;DHT22;18952;52.516;13.460;2023-03-12T09:53:55;3.20;99.90
32502;DHT22;18952;52.516;13.460;2023-03-12T09:56:23;3.30;99.90
32502;DHT22;18952;52.516;13.460;2023-03-12T09:58:51;3.30;99.90
32502;DHT22;18952;52.516;13.460;2023-03-12T10:01:39;3.30;99.90
32502;DHT22;18952;52.516;13.460;2023-03-12T10:07:37;3.40;99.90
32502;DHT22;18952;52.516;13.460;2023-03-12T10:26:59;4.10;99.90
32502;DHT22;18952;52.516;13.460;2023-03-12T10:29:32;4.30;99.90
32502;DHT22;18952;52.516;13.460;2023-03-12T10:32:10;4.30;99.90
32502;DHT22;18952;52.516;13.460;2023-03-12T10:38:03;4.30;99.90
32502;DHT22;18952;52.516;13.460;2023-03-12T10:40:34;4.20;99.90
32502;DHT22;18952;52.516;13.460;2023-03-12T10:43:03;4.30;99.90
32502;DHT22;18952;52.516;13.460;2023-03-12T10:45:45;4.30;99.90
32502;DHT22;18952;52.516;13.460;2023-03-12T10:48:38;4.40;99.90
32502;DHT22;18952;52.516;13.460;2023-03-12T10:51:11;4.40;99.90
32502;DHT22;18952;52.516;13.460;2023-03-12T10:53:40;4.50;99.90
32502;DHT22;18952;52.516;13.460;2023-03-12T11:03:46;4.40;99.90
32502;DHT22;18952;52.516;13.460;2023-03-12T11:06:24;4.60;99.90
32502;DHT22;18952;52.516;13.460;2023-03-12T11:09:16;4.70;99.90
32502;DHT22;18952;52.516;13.460;2023-03-12T11:11:45;4.80;99.90
32502;DHT22;18952;52.516;13.460;2023-03-12T11:14:24;4.90;99.90
32502;DHT22;18952;52.516;13.460;2023-03-12T11:16:53;5.00;99.90
32502;DHT22;18952;52.516;13.460;2023-03-12T11:19:31;5.10;99.90
32502;DHT22;18952;52.516;13.460;2023-03-12T11:22:05;5.20;99.90
32502;DHT22;18952;52.516;13.460;2023-03-12T11:24:32;5.30;99.90
32502;DHT22;18952;52.516;13.460;2023-03-12T11:29:43;5.20;99.90
32502;DHT22;18952;52.516;13.460;2023-03-12T11:32:18;5.30;99.90
32502;DHT22;18952;52.516;13.460;2023-03-12T11:34:46;5.40;99.90
32502;DHT22;18952;52.516;13.460;2023-03-12T11:45:39;5.40;99.90
32502;DHT22;18952;52.516;13.460;2023-03-12T11:48:24;5.40;99.90
32502;DHT22;18952;52.516;13.460;2023-03-12T11:56:23;5.80;99.90
32502;DHT22;18952;52.516;13.460;2023-03-12T11:59:13;5.80;99.90
32502;DHT22;18952;52.516;13.460;2023-03-12T12:04:35;5.80;99.40
32502;DHT22;18952;52.516;13.460;2023-03-12T12:17:58;5.80;96.60
32502;DHT22;18952;52.516;13.460;2023-03-12T12:20:35;5.90;95.50
32502;DHT22;18952;52.516;13.460;2023-03-12T12:23:17;5.80;95.50
32502;DHT22;18952;52.516;13.460;2023-03-12T12:31:54;6.20;90.90
32502;DHT22;18952;52.516;13.460;2023-03-12T12:39:53;6.30;96.50
32502;DHT22;18952;52.516;13.460;2023-03-12T12:42:29;6.40;96.40
32502;DHT22;18952;52.516;13.460;2023-03-12T12:44:59;6.60;95.80
32502;DHT22;18952;52.516;13.460;2023-03-12T12:47:40;6.70;94.80
32502;DHT22;18952;52.516;13.460;2023-03-12T12:50:15;6.60;91.20
32502;DHT22;18952;52.516;13.460;2023-03-12T12:52:45;6.50;86.30
32502;DHT22;18952;52.516;13.460;2023-03-12T12:55:36;6.40;87.80
32502;DHT22;18952;52.516;13.460;2023-03-12T12:58:13;6.40;90.00
32502;DHT22;18952;52.516;13.460;2023-03-12T13:03:23;6.50;87.50
32502;DHT22;18952;52.516;13.460;2023-03-12T13:11:37;6.50;82.00
32502;DHT22;18952;52.516;13.460;2023-03-12T13:16:43;6.50;77.90
32502;DHT22;18952;52.516;13.460;2023-03-12T13:21:52;6.30;76.20
32502;DHT22;18952;52.516;13.460;2023-03-12T13:27:25;6.00;77.40
32502;DHT22;18952;52.516;13.460;2023-03-12T13:29:56;5.90;80.60
32502;DHT22;18952;52.516;13.460;2023-03-12T13:45:28;6.30;80.40
32502;DHT22;18952;52.516;13.460;2023-03-12T13:47:59;6.10;81.00
32502;DHT22;18952;52.516;13.460;2023-03-12T13:50:28;6.10;81.90
32502;DHT22;18952;52.516;13.460;2023-03-12T13:53:03;6.00;83.00
32502;DHT22;18952;52.516;13.460;2023-03-12T13:55:33;6.00;83.20
32502;DHT22;18952;52.516;13.460;2023-03-12T14:05:55;6.10;80.20
32502;DHT22;18952;52.516;13.460;2023-03-12T14:14:24;5.80;73.90
32502;DHT22;18952;52.516;13.460;2023-03-12T14:17:00;5.60;73.10
32502;DHT22;18952;52.516;13.460;2023-03-12T14:19:30;5.60;73.60
32502;DHT22;18952;52.516;13.460;2023-03-12T14:22:04;5.50;74.80
32502;DHT22;18952;52.516;13.460;2023-03-12T14:24:34;5.50;75.20
32502;DHT22;18952;52.516;13.460;2023-03-12T14:27:05;5.50;74.90
32502;DHT22;18952;52.516;13.460;2023-03-12T14:29:47;5.40;75.30
32502;DHT22;18952;52.516;13.460;2023-03-12T14:32:21;5.20;76.20
32502;DHT22;18952;52.516;13.460;2023-03-12T14:35:07;5.10;74.20
32502;DHT22;18952;52.516;13.460;2023-03-12T14:43:31;4.90;80.70
32502;DHT22;18952;52.516;13.460;2023-03-12T14:46:04;4.80;82.40
32502;DHT22;18952;52.516;13.460;2023-03-12T14:48:34;4.80;83.60
32502;DHT22;18952;52.516;13.460;2023-03-12T14:51:04;4.80;84.60
32502;DHT22;18952;52.516;13.460;2023-03-12T14:53:34;4.80;85.70
32502;DHT22;18952;52.516;13.460;2023-03-12T14:56:22;4.90;86.40
32502;DHT22;18952;52.516;13.460;2023-03-12T14:58:50;4.90;87.40
32502;DHT22;18952;52.516;13.460;2023-03-12T15:01:23;4.90;88.90
32502;DHT22;18952;52.516;13.460;2023-03-12T15:03:56;4.90;89.70
32502;DHT22;18952;52.516;13.460;2023-03-12T15:06:31;4.90;90.10
32502;DHT22;18952;52.516;13.460;2023-03-12T15:09:01;5.00;90.40
32502;DHT22;18952;52.516;13.460;2023-03-12T15:11:30;5.00;90.20
32502;DHT22;18952;52.516;13.460;2023-03-12T15:14:04;5.00;90.10
32502;DHT22;18952;52.516;13.460;2023-03-12T15:16:33;5.00;90.20
32502;DHT22;18952;52.516;13.460;2023-03-12T15:19:01;4.90;91.10
32502;DHT22;18952;52.516;13.460;2023-03-12T15:21:31;4.90;91.20
32502;DHT22;18952;52.516;13.460;2023-03-12T15:23:59;4.90;91.20
32502;DHT22;18952;52.516;13.460;2023-03-12T15:26:29;4.90;91.20
32502;DHT22;18952;52.516;13.460;2023-03-12T15:29:02;4.90;91.20
32502;DHT22;18952;52.516;13.460;2023-03-12T15:31:47;4.90;91.00
32502;DHT22;18952;52.516;13.460;2023-03-12T15:36:56;4.70;91.60
32502;DHT22;18952;52.516;13.460;2023-03-12T15:39:31;4.50;92.50
32502;DHT22;18952;52.516;13.460;2023-03-12T15:42:10;4.50;93.50
32502;DHT22;18952;52.516;13.460;2023-03-12T15:44:46;4.40;94.60
32502;DHT22;18952;52.516;13.460;2023-03-12T15:47:20;4.20;95.50
32502;DHT22;18952;52.516;13.460;2023-03-12T15:50:21;4.20;96.80
32502;DHT22;18952;52.516;13.460;2023-03-12T15:53:21;4.20;98.30
32502;DHT22;18952;52.516;13.460;2023-03-12T15:56:03;4.10;99.70
32502;DHT22;18952;52.516;13.460;2023-03-12T15:58:32;4.20;99.90
32502;DHT22;18952;52.516;13.460;2023-03-12T16:01:16;4.20;99.90
32502;DHT22;18952;52.516;13.460;2023-03-12T16:03:44;4.30;99.90
32502;DHT22;18952;52.516;13.460;2023-03-12T16:06:14;4.20;99.90
32502;DHT22;18952;52.516;13.460;2023-03-12T16:08:47;4.20;99.90
32502;DHT22;18952;52.516;13.460;2023-03-12T16:11:21;4.10;99.90
32502;DHT22;18952;52.516;13.460;2023-03-12T16:13:50;4.00;99.90
32502;DHT22;18952;52.516;13.460;2023-03-12T16:16:18;3.90;99.90
32502;DHT22;18952;52.516;13.460;2023-03-12T16:18:45;3.90;99.90
32502;DHT22;18952;52.516;13.460;2023-03-12T16:21:12;3.90;99.90
32502;DHT22;18952;52.516;13.460;2023-03-12T16:23:39;3.90;99.90
32502;DHT22;18952;52.516;13.460;2023-03-12T16:26:06;3.90;99.90
32502;DHT22;18952;52.516;13.460;2023-03-12T16:28:34;4.00;99.90
32502;DHT22;18952;52.516;13.460;2023-03-12T16:31:01;4.00;99.90
32502;DHT22;18952;52.516;13.460;2023-03-12T16:33:28;4.00;99.90
32502;DHT22;18952;52.516;13.460;2023-03-12T16:35:55;4.00;99.90
32502;DHT22;18952;52.516;13.460;2023-03-12T16:38:22;4.00;99.90
32502;DHT22;18952;52.516;13.460;2023-03-12T16:40:50;4.00;99.90
32502;DHT22;18952;52.516;13.460;2023-03-12T16:43:20;4.00;99.90
32502;DHT22;18952;52.516;13.460;2023-03-12T16:45:48;3.90;99.90
32502;DHT22;18952;52.516;13.460;2023-03-12T16:48:18;3.90;99.90
32502;DHT22;18952;52.516;13.460;2023-03-12T16:50:53;3.90;99.90
32502;DHT22;18952;52.516;13.460;2023-03-12T16:53:22;3.80;99.90
32502;DHT22;18952;52.516;13.460;2023-03-12T16:55:57;3.70;99.90
32502;DHT22;18952;52.516;13.460;2023-03-12T16:58:26;3.70;99.90
32502;DHT22;18952;52.516;13.460;2023-03-12T17:00:54;3.50;99.90
32502;DHT22;18952;52.516;13.460;2023-03-12T17:03:35;3.40;99.90
32502;DHT22;18952;52.516;13.460;2023-03-12T17:06:05;3.40;99.90
32502;DHT22;18952;52.516;13.460;2023-03-12T17:08:32;3.40;99.90
32502;DHT22;18952;52.516;13.460;2023-03-12T17:10:59;3.40;99.90
32502;DHT22;18952;52.516;13.460;2023-03-12T17:13:27;3.30;99.90
32502;DHT22;18952;52.516;13.460;2023-03-12T17:15:55;3.30;99.90
32502;DHT22;18952;52.516;13.460;2023-03-12T17:18:22;3.30;99.90
32502;DHT22;18952;52.516;13.460;2023-03-12T17:20:49;3.30;99.90
32502;DHT22;18952;52.516;13.460;2023-03-12T17:23:16;3.30;99.90
32502;DHT22;18952;52.516;13.460;2023-03-12T17:25:43;3.40;99.90
32502;DHT22;18952;52.516;13.460;2023-03-12T17:28:11;3.30;99.90
32502;DHT22;18952;52.516;13.460;2023-03-12T17:30:38;3.40;99.90
32502;DHT22;18952;52.516;13.460;2023-03-12T17:33:10;3.40;99.90
32502;DHT22;18952;52.516;13.460;2023-03-12T17:35:38;3.40;99.90
32502;DHT22;18952;52.516;13.460;2023-03-12T17:38:06;3.40;99.90
32502;DHT22;18952;52.516;13.460;2023-03-12T17:40:33;3.40;99.90
32502;DHT22;18952;52.516;13.460;2023-03-12T17:43:00;3.40;99.90
32502;DHT22;18952;52.516;13.460;2023-03-12T17:45:27;3.40;99.90
32502;DHT22;18952;52.516;13.460;2023-03-12T17:47:54;3.40;99.90
32502;DHT22;18952;52.516;13.460;2023-03-12T17:50:21;3.40;99.90
32502;DHT22;18952;52.516;13.460;2023-03-12T17:52:48;3.40;99.90
32502;DHT22;18952;52.516;13.460;2023-03-12T17:55:15;3.40;99.90
32502;DHT22;18952;52.516;13.460;2023-03-12T17:57:42;3.40;99.90